»·PEaware :: SWA620 KLAS-KSMF

SWA620 :: KLAS-KSMF

FLIGHT INFORMATION

Flight Status: Arrived
Operator:
Southwest Airlines
More flights by this operator :: More flights under this callsign
Pilot: Scott H. (18906)
Aircraft: BOEING 737-800
(B738)
More flights by this aircraft type
Origin: KLAS McCarran Intl
United States
Destination: KSMF Sacramento Intl
United States
More flights between these airports :: More routes between these airports
Route: +SHEAD1 KENNO DONNR SLMMR3
File this flight plan on PilotEdge
Remarks: PBN / A1B1C1D1S1S2 NAV / RNVD1E2A1 REG / N806SB EET / KZOA0025 RMK / SIMBRIEF
Altitude:
(Current/Filed)
34,000ft
Speed:
(Current/Filed)
443kts
Departed: 16-Apr-18 08:56 PM
Arrived: 16-Apr-18 10:05 PM
Distance/Time
Traveled:
345nm/1:09
Distance/Time
To Go:
Arrived

Flight Plot

Page will automatically refresh every two minutes.

Flight plan parsing failed; only flown route is shown


Map Options




Map Legend


Flown Route
Filed Route
Departure Airport
Arrival Airport
Navaid (VOR, NDB)
Fix

Horizontal Profiles

Position Reports

Time Latitude Longitude Heading Altitude Ground
Speed
16-Apr-18 20:13 36.082085 -115.148333 63 2192ft 0kts
16-Apr-18 20:14 36.082085 -115.148333 63 2192ft 0kts
16-Apr-18 20:15 36.082085 -115.148333 63 2192ft 0kts
16-Apr-18 20:16 36.082085 -115.148333 63 2192ft 0kts
16-Apr-18 20:17 36.082085 -115.148333 63 2192ft 0kts
16-Apr-18 20:18 36.082085 -115.148333 63 2192ft 0kts
16-Apr-18 20:19 36.082085 -115.148333 63 2192ft 0kts
16-Apr-18 20:20 36.082085 -115.148333 63 2192ft 0kts
16-Apr-18 20:21 36.082085 -115.148333 63 2192ft 0kts
16-Apr-18 20:22 36.082085 -115.148333 63 2192ft 0kts
16-Apr-18 20:23 36.082085 -115.148333 63 2192ft 0kts
16-Apr-18 20:24 36.082085 -115.148333 63 2192ft 0kts
16-Apr-18 20:25 36.082085 -115.148333 63 2192ft 0kts
16-Apr-18 20:26 36.082085 -115.148333 63 2192ft 0kts
16-Apr-18 20:27 36.082085 -115.148333 63 2192ft 0kts
16-Apr-18 20:28 36.082085 -115.148333 63 2192ft 0kts
16-Apr-18 20:29 36.082085 -115.148333 63 2192ft 0kts
16-Apr-18 20:30 36.082085 -115.148333 63 2192ft 0kts
16-Apr-18 20:31 36.082085 -115.148333 63 2192ft 0kts
16-Apr-18 20:32 36.082085 -115.148333 63 2192ft 0kts
16-Apr-18 20:33 36.082085 -115.148333 63 2192ft 0kts
16-Apr-18 20:34 36.082085 -115.148333 63 2192ft 0kts
16-Apr-18 20:35 36.082085 -115.148333 63 2192ft 0kts
16-Apr-18 20:36 36.082085 -115.148333 63 2192ft 0kts
16-Apr-18 20:37 36.082085 -115.148333 63 2192ft 0kts
16-Apr-18 20:38 36.082085 -115.148333 63 2192ft 0kts
16-Apr-18 20:39 36.082085 -115.148333 63 2192ft 0kts
16-Apr-18 20:40 36.082085 -115.148333 63 2192ft 0kts
16-Apr-18 20:41 36.081879 -115.148873 65 2192ft 2kts
16-Apr-18 20:42 36.081547 -115.149090 337 2192ft 1kts
16-Apr-18 20:43 36.081300 -115.148962 338 2192ft 0kts
16-Apr-18 20:44 36.081303 -115.148964 338 2192ft 0kts
16-Apr-18 20:45 36.081446 -115.149295 252 2192ft 4kts
16-Apr-18 20:46 36.079446 -115.148000 157 2192ft 8kts
16-Apr-18 20:47 36.079117 -115.147833 156 2192ft 0kts
16-Apr-18 20:48 36.078354 -115.145115 93 2192ft 18kts
16-Apr-18 20:49 36.078253 -115.137256 90 2192ft 24kts
16-Apr-18 20:50 36.078231 -115.129341 90 2192ft 23kts
16-Apr-18 20:51 36.077979 -115.123019 125 2192ft 10kts
16-Apr-18 20:52 36.077096 -115.121317 173 2192ft 0kts
16-Apr-18 20:53 36.077093 -115.121317 173 2192ft 0kts
16-Apr-18 20:54 36.076587 -115.121272 191 2192ft 8kts
16-Apr-18 20:55 36.076296 -115.138128 269 2209ft 145kts
16-Apr-18 20:56 36.076369 -115.196376 265 4939ft 180kts
16-Apr-18 20:57 36.061333 -115.252907 213 7649ft 199kts
16-Apr-18 20:58 36.005798 -115.282934 205 10363ft 235kts
16-Apr-18 20:59 35.950042 -115.327016 225 9501ft 249kts
16-Apr-18 21:00 35.897229 -115.395825 239 10886ft 290kts
16-Apr-18 21:01 35.889056 -115.496481 263 11015ft 299kts
16-Apr-18 21:02 35.889931 -115.599787 263 12181ft 304kts
16-Apr-18 21:03 35.891503 -115.704203 261 16429ft 301kts
16-Apr-18 21:04 35.893137 -115.806813 260 20443ft 302kts
16-Apr-18 21:05 35.894844 -115.912496 261 23285ft 315kts
16-Apr-18 21:06 35.940450 -116.011316 293 26125ft 362kts
16-Apr-18 21:07 36.013062 -116.105479 300 27908ft 386kts
16-Apr-18 21:08 36.091499 -116.196469 301 29958ft 385kts
16-Apr-18 21:09 36.169712 -116.286877 301 31772ft 382kts
16-Apr-18 21:10 36.247343 -116.376892 301 33321ft 383kts
16-Apr-18 21:11 36.325519 -116.467896 302 33779ft 397kts
16-Apr-18 21:12 36.408743 -116.564970 303 33773ft 415kts
16-Apr-18 21:13 36.492771 -116.663269 303 33777ft 416kts
16-Apr-18 21:14 36.563707 -116.744703 307 33780ft 421kts
16-Apr-18 21:15 36.681924 -116.840129 317 33793ft 442kts
16-Apr-18 21:16 36.787510 -116.918076 316 33791ft 440kts
16-Apr-18 21:17 36.892081 -116.997696 316 33791ft 440kts
16-Apr-18 21:18 36.996431 -117.077586 316 33790ft 440kts
16-Apr-18 21:19 37.101037 -117.157982 316 33796ft 442kts
16-Apr-18 21:20 37.206029 -117.238946 317 33794ft 442kts
16-Apr-18 21:21 37.292531 -117.307681 310 33794ft 436kts
16-Apr-18 21:22 37.369985 -117.417973 298 33798ft 417kts
16-Apr-18 21:23 37.443576 -117.531379 299 33804ft 418kts
16-Apr-18 21:24 37.517471 -117.644771 300 33806ft 420kts
16-Apr-18 21:25 37.591555 -117.758641 300 33816ft 421kts
16-Apr-18 21:26 37.665999 -117.873428 300 33800ft 422kts
16-Apr-18 21:27 37.739719 -117.989083 298 33798ft 422kts
16-Apr-18 21:28 37.807490 -118.109376 297 33803ft 419kts
16-Apr-18 21:29 37.875007 -118.229374 297 33804ft 419kts
16-Apr-18 21:30 37.942528 -118.349291 297 33807ft 418kts
16-Apr-18 21:31 38.009768 -118.469013 297 33851ft 416kts
16-Apr-18 21:32 38.076997 -118.589126 297 33865ft 417kts
16-Apr-18 21:33 38.143880 -118.709059 298 33869ft 416kts
16-Apr-18 21:34 38.210679 -118.829276 298 33880ft 415kts
16-Apr-18 21:35 38.276919 -118.948924 298 33923ft 413kts
16-Apr-18 21:36 38.343096 -119.068897 299 33926ft 412kts
16-Apr-18 21:37 38.408543 -119.187995 299 33927ft 411kts
16-Apr-18 21:38 38.473732 -119.307057 299 31826ft 411kts
16-Apr-18 21:39 38.539308 -119.427255 300 29561ft 412kts
16-Apr-18 21:40 38.605253 -119.548566 300 26890ft 420kts
16-Apr-18 21:41 38.672481 -119.672706 301 24184ft 427kts
16-Apr-18 21:42 38.739835 -119.797632 301 23935ft 425kts
16-Apr-18 21:43 38.806852 -119.922371 301 23932ft 425kts
16-Apr-18 21:44 38.872766 -120.045478 301 23712ft 399kts
16-Apr-18 21:45 38.932246 -120.157028 301 22699ft 366kts
16-Apr-18 21:46 38.989196 -120.265311 297 20447ft 366kts
16-Apr-18 21:47 39.016508 -120.385528 283 19084ft 339kts
16-Apr-18 21:48 39.038453 -120.501032 283 17423ft 325kts
16-Apr-18 21:49 39.059806 -120.613334 284 15349ft 323kts
16-Apr-18 21:50 39.063419 -120.726848 255 13432ft 314kts
16-Apr-18 21:51 39.037392 -120.831015 254 11706ft 298kts
16-Apr-18 21:52 39.012011 -120.929002 253 10274ft 276kts
16-Apr-18 21:53 38.988394 -121.019431 253 9231ft 264kts
16-Apr-18 21:54 38.965150 -121.107941 253 8001ft 259kts
16-Apr-18 21:55 38.942246 -121.194790 253 6853ft 255kts
16-Apr-18 21:56 38.919592 -121.280307 253 5736ft 248kts
16-Apr-18 21:57 38.897442 -121.363615 253 5019ft 247kts
16-Apr-18 21:58 38.873940 -121.447560 251 4216ft 254kts
16-Apr-18 21:59 38.851716 -121.529916 253 2816ft 237kts
16-Apr-18 22:00 38.814219 -121.579685 178 2093ft 212kts
16-Apr-18 22:01 38.757988 -121.578764 182 1106ft 172kts
16-Apr-18 22:02 38.715554 -121.579899 180 235ft 136kts
16-Apr-18 22:03 38.686604 -121.580373 180 39ft 57kts
16-Apr-18 22:04 38.683771 -121.582765 288 39ft 12kts
16-Apr-18 22:05 38.688147 -121.583064 0 39ft 23kts
16-Apr-18 22:06 38.695524 -121.582961 339 39ft 11kts
16-Apr-18 22:07 38.696999 -121.587096 340 39ft 13kts
16-Apr-18 22:08 38.695880 -121.592201 222 39ft 20kts
16-Apr-18 22:09 38.694147 -121.593615 161 39ft 0kts
16-Apr-18 22:10 38.694147 -121.593615 161 39ft 0kts
16-Apr-18 22:11 38.694147 -121.593615 161 39ft 0kts
16-Apr-18 22:12 38.694147 -121.593615 161 39ft 0kts
16-Apr-18 22:13 38.694147 -121.593615 161 39ft 0kts

Navigation Log

Ident Type
Flight plan parsing failed, navigation log unavailable